Time;durP1;ratioP1;P1;durP2;ratioP2;P2;SDS_P1;SDS_P2;PMS_P1;PMS_P2;Temp;Humidity;BMP_temperature;BMP_pressure;BME280_temperature;BME280_humidity;BME280_pressure;Samples;Min_cycle;Max_cycle;Signal;HPM_P1;HPM_P2
2022/10/30 00:01:35;;;;;;;26.67;16.60;;;12.80;99.90;;;;;;5003565;28;20247;-79
2022/10/30 00:04:01;;;;;;;23.93;15.43;;;12.90;99.90;;;;;;4994063;28;20238;-80
2022/10/30 00:06:28;;;;;;;27.50;15.50;;;12.90;99.90;;;;;;5000100;28;20346;-80
2022/10/30 00:08:55;;;;;;;24.53;15.30;;;12.90;99.90;;;;;;5002512;28;20224;-80
2022/10/30 00:11:22;;;;;;;20.60;15.30;;;12.90;99.90;;;;;;4996181;28;20257;-79
2022/10/30 00:13:49;;;;;;;24.63;15.67;;;12.90;99.90;;;;;;4996887;28;20235;-79
2022/10/30 00:16:16;;;;;;;27.23;15.40;;;12.90;99.90;;;;;;4996699;28;20840;-79
2022/10/30 00:18:42;;;;;;;25.57;15.80;;;12.90;99.90;;;;;;5003785;28;20232;-80
2022/10/30 00:21:12;;;;;;;21.20;14.30;;;12.80;99.90;;;;;;4990669;28;20240;-79
2022/10/30 00:23:39;;;;;;;22.93;14.17;;;12.80;99.90;;;;;;4995221;28;20230;-80
2022/10/30 00:26:07;;;;;;;22.00;14.70;;;12.80;99.90;;;;;;4994538;28;20251;-80
2022/10/30 00:28:35;;;;;;;22.63;14.90;;;12.80;99.90;;;;;;5002513;28;20242;-79
2022/10/30 00:31:03;;;;;;;20.77;14.60;;;12.80;99.90;;;;;;4991205;28;20215;-79
2022/10/30 00:33:30;;;;;;;24.30;14.43;;;12.70;99.90;;;;;;4994336;28;20223;-79
2022/10/30 00:35:58;;;;;;;19.93;14.37;;;12.70;99.90;;;;;;4996344;28;20249;-79
2022/10/30 00:38:25;;;;;;;26.70;16.13;;;12.70;99.90;;;;;;4998951;28;20224;-79
2022/10/30 00:40:51;;;;;;;19.93;14.33;;;12.70;99.90;;;;;;4993417;28;20229;-79
2022/10/30 00:43:30;;;;;;;20.77;13.63;;;12.60;99.90;;;;;;4997396;28;20309;-79
2022/10/30 00:46:01;;;;;;;21.03;14.30;;;12.60;99.90;;;;;;4998914;28;20236;-80
2022/10/30 00:48:28;;;;;;;31.73;15.77;;;12.60;99.90;;;;;;4991649;28;20702;-79
2022/10/30 00:50:56;;;;;;;22.47;14.57;;;12.50;99.90;;;;;;4993038;28;20224;-79
2022/10/30 00:53:24;;;;;;;21.23;13.20;;;12.50;99.90;;;;;;4991112;28;20226;-79
2022/10/30 00:55:54;;;;;;;21.27;14.40;;;12.40;99.90;;;;;;4992671;28;20309;-79
2022/10/30 00:58:25;;;;;;;18.47;13.73;;;12.40;99.90;;;;;;4995281;28;20214;-79
2022/10/30 01:00:54;;;;;;;20.90;13.40;;;12.30;99.90;;;;;;4999325;28;20241;-79
2022/10/30 01:03:24;;;;;;;17.87;12.93;;;12.30;99.90;;;;;;4994352;28;20273;-79
2022/10/30 01:05:54;;;;;;;22.87;14.00;;;12.30;99.90;;;;;;4999456;28;20221;-80
2022/10/30 01:08:21;;;;;;;19.07;13.43;;;12.20;99.90;;;;;;4996064;28;20260;-79
2022/10/30 01:10:49;;;;;;;25.03;15.27;;;12.20;99.90;;;;;;5000620;28;20232;-79
2022/10/30 01:13:18;;;;;;;26.23;15.47;;;12.20;99.90;;;;;;4992806;28;20225;-79
2022/10/30 01:16:04;;;;;;;21.07;14.60;;;12.10;99.90;;;;;;4996503;28;21877;-79
2022/10/30 01:18:40;;;;;;;22.60;14.40;;;12.10;99.90;;;;;;4996357;28;20224;-79
2022/10/30 01:21:17;;;;;;;25.23;14.50;;;12.10;99.90;;;;;;4995849;28;20715;-79
2022/10/30 01:23:54;;;;;;;19.40;13.53;;;12.10;99.90;;;;;;4990130;28;20312;-79
2022/10/30 01:26:30;;;;;;;25.80;15.60;;;12.10;99.90;;;;;;4995079;28;20236;-79
2022/10/30 01:29:13;;;;;;;21.00;13.73;;;12.00;99.90;;;;;;4998483;28;20348;-79
2022/10/30 01:31:54;;;;;;;21.07;13.77;;;12.00;99.90;;;;;;5013112;28;20231;-79
2022/10/30 01:34:30;;;;;;;22.27;13.53;;;12.00;99.90;;;;;;4992660;28;20225;-79
2022/10/30 01:37:02;;;;;;;21.13;14.57;;;11.90;99.90;;;;;;5019843;28;20225;-79
2022/10/30 01:39:33;;;;;;;20.83;13.80;;;11.90;99.90;;;;;;4993573;28;20226;-79
2022/10/30 01:42:09;;;;;;;18.93;12.97;;;11.90;99.90;;;;;;5005226;28;20792;-80
2022/10/30 01:44:37;;;;;;;27.77;13.27;;;11.90;99.90;;;;;;4991787;28;20229;-79
2022/10/30 01:47:28;;;;;;;18.30;13.40;;;11.90;99.90;;;;;;5000205;28;20671;-80
2022/10/30 01:50:15;;;;;;;21.70;13.73;;;11.80;99.90;;;;;;4998654;28;20230;-79
2022/10/30 01:52:49;;;;;;;19.80;12.97;;;11.80;99.90;;;;;;4994943;28;20306;-79
2022/10/30 01:55:29;;;;;;;19.67;13.10;;;11.80;99.90;;;;;;4994757;28;20285;-79
2022/10/30 01:58:02;;;;;;;17.57;12.77;;;11.90;99.90;;;;;;5004338;28;20319;-79
2022/10/30 02:00:28;;;;;;;19.67;12.70;;;11.90;99.90;;;;;;5000650;28;20231;-80
2022/10/30 02:02:55;;;;;;;22.63;13.40;;;11.90;99.90;;;;;;4992444;28;20237;-79
2022/10/30 02:05:31;;;;;;;16.33;12.00;;;11.90;99.90;;;;;;4999721;28;20912;-79
2022/10/30 02:07:58;;;;;;;19.17;12.27;;;11.90;99.90;;;;;;5004183;28;20230;-79
2022/10/30 02:10:26;;;;;;;18.87;12.03;;;11.90;99.90;;;;;;5002890;28;20874;-80
2022/10/30 02:12:54;;;;;;;16.90;11.13;;;11.90;99.90;;;;;;5005039;28;20285;-78
2022/10/30 02:15:23;;;;;;;18.30;11.87;;;11.90;99.90;;;;;;4998281;28;20232;-78
2022/10/30 02:17:49;;;;;;;17.87;11.93;;;11.90;99.90;;;;;;5002603;28;20227;-79
2022/10/30 02:20:19;;;;;;;15.83;11.07;;;11.80;99.90;;;;;;5000553;28;20241;-78
2022/10/30 02:22:49;;;;;;;17.30;11.57;;;11.80;99.90;;;;;;5001002;28;20233;-79
2022/10/30 02:25:16;;;;;;;18.10;10.93;;;11.80;99.90;;;;;;4997684;28;20658;-79
2022/10/30 02:27:42;;;;;;;14.90;9.83;;;11.80;99.90;;;;;;5002900;28;20256;-79
2022/10/30 02:30:12;;;;;;;16.73;9.87;;;11.80;99.90;;;;;;4999414;28;20231;-78
2022/10/30 02:32:38;;;;;;;16.70;10.60;;;11.70;99.90;;;;;;5003351;28;21147;-78
2022/10/30 02:35:06;;;;;;;17.20;10.50;;;11.70;99.90;;;;;;5002788;28;20218;-79
2022/10/30 02:37:35;;;;;;;15.53;10.97;;;11.60;99.90;;;;;;5004514;28;20831;-78
2022/10/30 02:40:02;;;;;;;17.73;10.50;;;11.60;99.90;;;;;;5001331;28;20230;-78
2022/10/30 02:42:29;;;;;;;13.07;10.17;;;11.60;99.90;;;;;;4999913;28;20653;-78
2022/10/30 02:44:56;;;;;;;18.63;10.53;;;11.50;99.90;;;;;;4991270;28;20229;-78
2022/10/30 02:47:22;;;;;;;17.93;11.10;;;11.60;99.90;;;;;;4998575;28;20249;-78
2022/10/30 02:49:49;;;;;;;15.43;9.97;;;11.50;99.90;;;;;;4994749;28;20298;-78
2022/10/30 02:52:16;;;;;;;22.73;11.43;;;11.50;99.90;;;;;;5001757;28;20966;-78
2022/10/30 02:54:44;;;;;;;19.37;10.77;;;11.50;99.90;;;;;;4996267;28;20373;-79
2022/10/30 02:57:11;;;;;;;17.90;10.40;;;11.50;99.90;;;;;;5004705;28;20332;-78
2022/10/30 02:59:38;;;;;;;22.37;11.27;;;11.50;99.90;;;;;;5002586;28;20656;-79
2022/10/30 03:02:04;;;;;;;14.87;9.90;;;11.50;99.90;;;;;;5012303;28;20870;-80
2022/10/30 03:04:31;;;;;;;15.20;10.97;;;11.50;99.90;;;;;;5012402;28;20229;-78
2022/10/30 03:06:58;;;;;;;21.03;11.70;;;11.50;99.90;;;;;;5000008;28;20676;-79
2022/10/30 03:09:25;;;;;;;16.80;10.57;;;11.50;99.90;;;;;;5000340;28;20299;-79
2022/10/30 03:11:53;;;;;;;17.57;10.87;;;11.50;99.90;;;;;;4997460;28;20221;-79
2022/10/30 03:14:22;;;;;;;21.63;11.03;;;11.60;99.90;;;;;;4996150;28;20218;-78
2022/10/30 03:16:51;;;;;;;19.40;11.57;;;11.50;99.90;;;;;;5000458;28;20235;-81
2022/10/30 03:19:18;;;;;;;19.50;11.47;;;11.60;99.90;;;;;;5001620;28;20701;-80
2022/10/30 03:21:45;;;;;;;16.57;10.43;;;11.60;99.90;;;;;;5002122;28;20251;-79
2022/10/30 03:24:14;;;;;;;18.67;11.23;;;11.50;99.90;;;;;;4998949;28;20639;-79
2022/10/30 03:26:40;;;;;;;18.33;10.57;;;11.50;99.90;;;;;;5001239;28;20237;-80
2022/10/30 03:29:09;;;;;;;20.63;11.17;;;11.50;99.90;;;;;;5001324;28;20269;-80
2022/10/30 03:31:36;;;;;;;14.23;10.50;;;11.50;99.90;;;;;;5004416;28;20246;-80
2022/10/30 03:34:19;;;;;;;19.90;11.87;;;11.50;99.90;;;;;;5000035;28;20758;-80
2022/10/30 03:36:45;;;;;;;17.37;10.03;;;11.50;99.90;;;;;;5002277;28;21039;-79
2022/10/30 03:39:13;;;;;;;17.43;10.47;;;11.50;99.90;;;;;;5011779;28;20632;-80
2022/10/30 03:41:43;;;;;;;15.20;10.70;;;11.50;99.90;;;;;;5000386;28;20246;-80
2022/10/30 03:44:11;;;;;;;19.50;10.70;;;11.40;99.90;;;;;;4996245;28;20293;-80
2022/10/30 03:46:38;;;;;;;22.90;11.00;;;11.40;99.90;;;;;;5005278;28;20223;-79
2022/10/30 03:49:16;;;;;;;16.47;10.40;;;11.40;99.90;;;;;;5000950;28;20241;-79
2022/10/30 03:51:43;;;;;;;18.37;10.40;;;11.40;99.90;;;;;;4998049;28;20318;-80
2022/10/30 03:54:10;;;;;;;16.53;10.63;;;11.40;99.90;;;;;;4995138;28;20233;-79
2022/10/30 03:56:36;;;;;;;20.70;10.13;;;11.30;99.90;;;;;;4994995;28;20684;-78
2022/10/30 03:59:04;;;;;;;16.73;10.40;;;11.30;99.90;;;;;;5000096;28;20220;-80
2022/10/30 04:01:32;;;;;;;17.53;11.10;;;11.30;99.90;;;;;;4998101;28;20213;-81
2022/10/30 04:03:59;;;;;;;17.43;10.90;;;11.20;99.90;;;;;;5011659;28;20347;-79
2022/10/30 04:06:26;;;;;;;21.23;10.87;;;11.20;99.90;;;;;;4994827;28;20245;-79
2022/10/30 04:08:54;;;;;;;16.53;10.03;;;11.20;99.90;;;;;;5004488;28;20496;-79
2022/10/30 04:11:21;;;;;;;19.27;10.63;;;11.10;99.90;;;;;;5003153;28;20632;-78
2022/10/30 04:13:47;;;;;;;18.77;10.90;;;11.10;99.90;;;;;;4999628;28;20741;-80
2022/10/30 04:16:14;;;;;;;14.40;10.83;;;11.10;99.90;;;;;;4999783;28;20230;-79
2022/10/30 04:18:42;;;;;;;16.33;10.87;;;11.00;99.90;;;;;;5001842;28;20260;-79
2022/10/30 04:21:09;;;;;;;16.10;10.33;;;11.00;99.90;;;;;;4999283;28;20663;-79
2022/10/30 04:23:37;;;;;;;18.30;10.67;;;10.90;99.90;;;;;;4993260;28;20249;-80
2022/10/30 04:26:04;;;;;;;16.60;10.43;;;10.90;99.90;;;;;;5014650;28;20234;-79
2022/10/30 04:28:31;;;;;;;19.50;10.57;;;10.90;99.90;;;;;;4997894;28;20685;-79
2022/10/30 04:30:58;;;;;;;22.57;11.17;;;10.80;99.90;;;;;;4994707;28;20269;-80
2022/10/30 04:33:26;;;;;;;18.50;10.87;;;10.80;99.90;;;;;;5000538;28;20226;-80
2022/10/30 04:35:55;;;;;;;18.87;10.43;;;10.80;99.90;;;;;;5003319;28;20217;-80
2022/10/30 04:38:22;;;;;;;22.30;11.67;;;10.80;99.90;;;;;;5004306;28;20413;-78
2022/10/30 04:40:49;;;;;;;15.33;10.73;;;10.80;99.90;;;;;;4996981;28;20217;-79
2022/10/30 04:43:19;;;;;;;18.43;10.77;;;10.80;99.90;;;;;;4997618;28;20706;-79
2022/10/30 04:45:49;;;;;;;19.87;11.17;;;10.80;99.90;;;;;;5000360;28;20313;-78
2022/10/30 04:48:18;;;;;;;16.83;10.47;;;10.80;99.90;;;;;;4997760;28;20217;-80
2022/10/30 04:50:46;;;;;;;14.20;9.53;;;10.80;99.90;;;;;;4998357;28;20224;-80
2022/10/30 04:53:21;;;;;;;17.40;11.77;;;10.80;99.90;;;;;;4998053;28;20229;-79
2022/10/30 04:55:54;;;;;;;18.97;9.93;;;10.80;99.90;;;;;;5004897;28;20874;-79
2022/10/30 04:58:21;;;;;;;16.90;10.13;;;10.80;99.90;;;;;;4996602;28;20424;-79
2022/10/30 05:00:54;;;;;;;18.80;11.13;;;10.90;99.90;;;;;;4994290;28;20229;-79
2022/10/30 05:03:23;;;;;;;19.37;10.83;;;10.90;99.90;;;;;;4988258;28;20870;-80
2022/10/30 05:05:57;;;;;;;17.93;10.50;;;10.90;99.90;;;;;;5001422;28;20233;-83
2022/10/30 05:08:25;;;;;;;17.30;10.43;;;10.90;99.90;;;;;;5000888;28;22433;-82
2022/10/30 05:10:53;;;;;;;16.07;9.73;;;10.90;99.90;;;;;;5003629;28;20242;-83
2022/10/30 05:13:20;;;;;;;15.87;10.03;;;11.00;99.90;;;;;;4998984;28;20237;-83
2022/10/30 05:15:47;;;;;;;17.03;10.20;;;11.00;99.90;;;;;;5000977;28;20253;-82
2022/10/30 05:18:14;;;;;;;17.20;10.10;;;11.00;99.90;;;;;;4996103;28;20228;-83
2022/10/30 05:20:41;;;;;;;19.60;9.50;;;11.00;99.90;;;;;;4994811;28;20230;-84
2022/10/30 05:23:09;;;;;;;16.80;10.13;;;11.00;99.90;;;;;;4997011;28;20248;-84
2022/10/30 05:25:37;;;;;;;16.57;9.37;;;11.00;99.90;;;;;;4997345;28;20231;-83
2022/10/30 05:28:06;;;;;;;15.23;9.00;;;11.00;99.90;;;;;;5000298;28;20216;-83
2022/10/30 05:30:40;;;;;;;13.60;9.93;;;11.00;99.90;;;;;;4998274;28;20229;-82
2022/10/30 05:33:16;;;;;;;14.90;9.90;;;10.90;99.90;;;;;;4995387;28;20228;-83
2022/10/30 05:35:43;;;;;;;17.83;9.90;;;10.90;99.90;;;;;;5001779;28;20269;-83
2022/10/30 05:38:14;;;;;;;15.57;9.67;;;10.90;99.90;;;;;;5001521;28;20364;-78
2022/10/30 05:40:45;;;;;;;12.57;8.73;;;10.90;99.90;;;;;;4995033;28;20222;-81
2022/10/30 05:43:12;;;;;;;20.80;9.97;;;10.80;99.90;;;;;;4995460;28;20368;-82
2022/10/30 05:45:39;;;;;;;12.63;8.63;;;10.80;99.90;;;;;;4996270;28;20235;-82
2022/10/30 05:48:07;;;;;;;17.63;9.10;;;10.80;99.90;;;;;;4995609;28;20221;-81
2022/10/30 05:50:41;;;;;;;18.47;10.37;;;10.80;99.90;;;;;;4991131;28;20237;-82
2022/10/30 05:53:37;;;;;;;15.93;9.23;;;10.70;99.90;;;;;;4992835;28;20240;-82
2022/10/30 05:56:07;;;;;;;14.53;9.37;;;10.70;99.90;;;;;;4993946;28;20228;-82
2022/10/30 05:58:35;;;;;;;19.93;10.30;;;10.70;99.90;;;;;;4987773;28;20245;-82
2022/10/30 06:01:05;;;;;;;18.03;9.60;;;10.70;99.90;;;;;;4996903;28;20232;-83
2022/10/30 06:03:40;;;;;;;17.10;11.03;;;10.60;99.90;;;;;;4993375;28;20348;-83
2022/10/30 06:06:07;;;;;;;17.10;11.43;;;10.60;99.90;;;;;;4995917;28;20261;-81
2022/10/30 06:08:34;;;;;;;16.90;9.80;;;10.60;99.90;;;;;;4998507;28;20317;-83
2022/10/30 06:11:10;;;;;;;15.20;9.93;;;10.60;99.90;;;;;;4990620;28;20220;-83
2022/10/30 06:13:40;;;;;;;19.33;10.47;;;10.60;99.90;;;;;;4993415;28;20233;-82
2022/10/30 06:16:11;;;;;;;26.80;21.93;;;10.60;99.90;;;;;;4994654;28;20235;-81
2022/10/30 06:18:58;;;;;;;18.03;10.50;;;10.60;99.90;;;;;;4999796;28;20240;-82
2022/10/30 06:21:26;;;;;;;24.23;11.00;;;10.60;99.90;;;;;;4992134;28;20329;-83
2022/10/30 06:24:14;;;;;;;16.13;9.27;;;10.60;99.90;;;;;;4990791;28;20229;-82
2022/10/30 06:26:54;;;;;;;17.97;10.20;;;10.60;99.90;;;;;;4996653;28;20233;-81
2022/10/30 06:29:21;;;;;;;16.97;9.70;;;10.60;99.90;;;;;;5003880;28;20302;-81
2022/10/30 06:31:48;;;;;;;15.40;9.30;;;10.50;99.90;;;;;;4997277;28;20221;-82
2022/10/30 06:34:14;;;;;;;14.10;10.17;;;10.50;99.90;;;;;;5002334;28;20221;-82
2022/10/30 06:36:42;;;;;;;17.07;9.83;;;10.50;99.90;;;;;;4999103;28;20342;-83
2022/10/30 06:39:09;;;;;;;20.37;10.33;;;10.50;99.90;;;;;;4996622;28;20295;-82
2022/10/30 06:41:46;;;;;;;14.47;9.40;;;10.50;99.90;;;;;;4998937;28;20323;-81
2022/10/30 06:44:30;;;;;;;15.57;9.20;;;10.50;99.90;;;;;;5003561;28;20241;-82
2022/10/30 06:46:57;;;;;;;13.13;9.77;;;10.50;99.90;;;;;;4996675;28;20221;-83
2022/10/30 06:49:24;;;;;;;16.27;9.80;;;10.50;99.90;;;;;;5001306;28;22967;-82
2022/10/30 06:51:51;;;;;;;16.03;9.83;;;10.50;99.90;;;;;;5003095;28;20220;-83
2022/10/30 06:54:18;;;;;;;14.10;10.17;;;10.50;99.90;;;;;;4999865;28;20277;-83
2022/10/30 06:57:14;;;;;;;15.47;9.87;;;10.60;99.90;;;;;;5001800;28;20233;-82
2022/10/30 06:59:52;;;;;;;13.73;9.30;;;10.60;99.90;;;;;;5008546;28;20737;-82
2022/10/30 07:02:32;;;;;;;15.07;10.33;;;10.70;99.90;;;;;;5001488;28;20236;-83
2022/10/30 07:05:04;;;;;;;14.20;9.50;;;10.70;99.90;;;;;;5001457;28;20257;-82
2022/10/30 07:07:31;;;;;;;13.67;8.93;;;10.80;99.90;;;;;;4999397;28;20694;-83
2022/10/30 07:09:59;;;;;;;12.87;9.40;;;10.80;99.90;;;;;;5020164;28;20221;-82
2022/10/30 07:12:52;;;;;;;15.33;9.27;;;10.90;99.90;;;;;;5004482;28;20239;-81
2022/10/30 07:15:35;;;;;;;13.53;9.17;;;11.00;99.90;;;;;;4999136;28;20222;-82
2022/10/30 07:18:10;;;;;;;13.77;8.97;;;11.10;99.90;;;;;;4994901;28;20217;-83
2022/10/30 07:20:37;;;;;;;17.00;9.70;;;11.20;99.90;;;;;;5005432;28;20269;-82
2022/10/30 07:23:05;;;;;;;20.30;9.93;;;11.20;99.90;;;;;;5006657;28;20341;-82
2022/10/30 07:25:32;;;;;;;17.33;9.83;;;11.30;99.90;;;;;;5004620;28;20225;-82
2022/10/30 07:28:08;;;;;;;17.10;9.33;;;11.40;99.90;;;;;;4999445;28;20213;-81
2022/10/30 07:30:44;;;;;;;16.20;9.07;;;11.50;99.90;;;;;;5004114;28;20240;-82
2022/10/30 07:33:23;;;;;;;17.93;9.87;;;11.50;99.90;;;;;;4998830;28;20759;-82
2022/10/30 07:36:04;;;;;;;13.47;9.40;;;11.60;99.90;;;;;;5005111;28;20256;-82
2022/10/30 07:38:51;;;;;;;13.37;8.67;;;11.70;99.90;;;;;;5002805;28;20232;-81
2022/10/30 07:41:37;;;;;;;13.90;9.57;;;11.70;99.90;;;;;;4998549;28;20582;-82
2022/10/30 07:44:33;;;;;;;11.47;8.67;;;11.80;99.90;;;;;;5000758;28;20226;-85
2022/10/30 07:47:20;;;;;;;13.10;8.80;;;11.80;99.90;;;;;;4999755;28;20306;-80
2022/10/30 07:50:00;;;;;;;16.37;9.30;;;11.90;99.90;;;;;;5012986;28;20936;-86
2022/10/30 07:52:31;;;;;;;14.60;8.97;;;11.90;99.90;;;;;;4994177;28;20226;-82
2022/10/30 07:54:57;;;;;;;17.07;9.13;;;12.00;99.90;;;;;;4995833;28;20325;-82
2022/10/30 07:58:00;;;;;;;15.83;8.67;;;12.00;99.90;;;;;;4962461;28;20219;-85
2022/10/30 08:00:56;;;;;;;15.03;9.33;;;12.10;99.90;;;;;;5012842;28;20773;-82
2022/10/30 08:03:31;;;;;;;14.27;9.10;;;12.20;99.90;;;;;;4993337;28;20223;-83
2022/10/30 08:06:06;;;;;;;14.53;9.37;;;12.40;99.90;;;;;;4997168;28;20536;-79
2022/10/30 08:08:35;;;;;;;13.37;9.03;;;12.50;99.90;;;;;;4997183;28;20237;-83
2022/10/30 08:11:17;;;;;;;17.33;9.40;;;12.60;99.90;;;;;;4995492;28;20629;-82
2022/10/30 08:13:43;;;;;;;17.17;9.73;;;12.90;99.90;;;;;;4995009;28;20651;-83
2022/10/30 08:16:11;;;;;;;14.43;9.10;;;13.10;99.90;;;;;;4994689;28;20221;-81
2022/10/30 08:18:41;;;;;;;17.67;9.17;;;13.40;99.90;;;;;;4991638;28;20226;-82
2022/10/30 08:21:08;;;;;;;14.03;9.03;;;13.70;99.90;;;;;;4990683;28;20689;-82
2022/10/30 08:23:35;;;;;;;15.27;8.30;;;14.10;99.90;;;;;;5008215;28;20238;-82
2022/10/30 08:26:09;;;;;;;15.77;7.93;;;14.50;99.90;;;;;;4993772;28;20228;-83
2022/10/30 08:28:36;;;;;;;12.53;8.13;;;14.90;99.90;;;;;;4994320;28;20236;-83
2022/10/30 08:31:06;;;;;;;11.80;7.87;;;15.20;99.90;;;;;;5006510;28;20288;-83
2022/10/30 08:33:57;;;;;;;17.00;7.80;;;15.40;99.90;;;;;;4994752;28;20545;-83
2022/10/30 08:36:31;;;;;;;16.47;7.80;;;15.60;99.90;;;;;;4995329;28;20942;-82
2022/10/30 08:38:58;;;;;;;17.67;8.53;;;15.70;99.90;;;;;;4997080;28;20227;-83
2022/10/30 08:41:40;;;;;;;15.70;7.27;;;15.80;99.90;;;;;;4998676;28;20563;-83
2022/10/30 08:44:06;;;;;;;11.93;7.90;;;15.90;99.90;;;;;;4994644;28;20577;-83
2022/10/30 08:46:53;;;;;;;14.37;7.43;;;16.00;99.90;;;;;;4995088;28;20598;-83
2022/10/30 08:49:21;;;;;;;14.27;8.13;;;16.00;99.90;;;;;;4997438;28;20219;-83
2022/10/30 08:51:53;;;;;;;11.63;8.50;;;16.00;99.90;;;;;;5000996;28;20233;-81
2022/10/30 08:54:20;;;;;;;16.50;8.27;;;16.10;99.90;;;;;;4987867;28;20240;-80
2022/10/30 08:56:47;;;;;;;13.17;8.10;;;16.10;99.90;;;;;;4997159;28;20307;-81
2022/10/30 08:59:15;;;;;;;14.17;8.47;;;16.20;99.90;;;;;;4996613;28;20864;-81
2022/10/30 09:01:42;;;;;;;15.50;7.70;;;16.30;99.90;;;;;;4992953;28;20245;-81
2022/10/30 09:04:33;;;;;;;12.90;8.27;;;16.40;99.90;;;;;;4980328;28;20231;-81
2022/10/30 09:07:31;;;;;;;17.90;8.63;;;16.40;99.90;;;;;;4951217;28;20626;-81
2022/10/30 09:10:28;;;;;;;14.23;8.13;;;16.50;99.90;;;;;;4988694;28;20229;-81
2022/10/30 09:12:55;;;;;;;16.57;8.33;;;16.70;99.90;;;;;;4995563;28;20314;-81
2022/10/30 09:15:23;;;;;;;14.10;8.33;;;17.00;99.90;;;;;;4982435;28;20237;-81
2022/10/30 09:17:58;;;;;;;14.23;7.73;;;17.40;99.90;;;;;;4996441;28;20227;-81
2022/10/30 09:20:26;;;;;;;12.83;7.83;;;17.80;99.90;;;;;;5000599;28;20310;-81
2022/10/30 09:22:53;;;;;;;11.90;7.73;;;18.30;99.90;;;;;;5001827;28;20230;-81
2022/10/30 09:25:20;;;;;;;13.87;8.23;;;18.80;99.90;;;;;;4999618;28;20820;-81
2022/10/30 09:27:58;;;;;;;14.97;8.40;;;19.20;99.90;;;;;;5000224;28;20746;-82
2022/10/30 09:30:28;;;;;;;9.67;7.40;;;19.70;99.90;;;;;;4999944;28;20279;-81
2022/10/30 09:32:57;;;;;;;13.02;7.80;;;20.00;99.90;;;;;;5010361;28;20283;-79
2022/10/30 09:35:36;;;;;;;14.93;8.27;;;20.40;99.90;;;;;;5000736;28;20233;-80
2022/10/30 09:38:03;;;;;;;14.63;7.60;;;20.70;99.90;;;;;;4994583;28;20305;-79
2022/10/30 09:40:40;;;;;;;15.02;8.02;;;20.90;99.90;;;;;;4994904;28;20272;-79
2022/10/30 09:43:19;;;;;;;14.77;8.38;;;21.10;99.90;;;;;;4992400;28;20251;-80
2022/10/30 09:46:15;;;;;;;14.18;7.82;;;21.30;99.90;;;;;;4992759;28;20953;-80
2022/10/30 09:49:03;;;;;;;13.68;7.75;;;21.50;99.90;;;;;;4982052;28;20229;-80
2022/10/30 09:52:03;;;;;;;14.45;7.65;;;21.70;99.90;;;;;;4988317;28;20345;-79
2022/10/30 09:54:43;;;;;;;14.43;8.05;;;21.90;99.90;;;;;;4936946;28;20339;-79
2022/10/30 09:57:18;;;;;;;14.80;8.68;;;22.00;99.90;;;;;;5013236;28;20325;-80
2022/10/30 09:59:54;;;;;;;12.32;8.63;;;22.20;99.90;;;;;;4995323;28;20648;-80
2022/10/30 10:02:32;;;;;;;14.02;8.05;;;22.30;99.90;;;;;;5003010;28;20332;-80
2022/10/30 10:05:03;;;;;;;16.35;8.38;;;22.40;99.90;;;;;;4994240;28;20228;-80
2022/10/30 10:08:00;;;;;;;18.48;9.10;;;22.50;99.90;;;;;;4983880;28;20285;-80
2022/10/30 10:10:44;;;;;;;16.33;8.10;;;22.60;99.90;;;;;;4998158;28;20577;-80
2022/10/30 10:13:29;;;;;;;14.90;7.47;;;22.70;99.90;;;;;;4991333;28;20305;-80
2022/10/30 10:15:59;;;;;;;11.98;8.43;;;22.80;99.90;;;;;;4994265;28;20271;-80
2022/10/30 10:18:31;;;;;;;11.23;8.07;;;22.80;99.90;;;;;;4990961;28;20236;-80
2022/10/30 10:21:09;;;;;;;16.77;8.02;;;22.90;99.90;;;;;;4997045;28;20333;-80
2022/10/30 10:23:46;;;;;;;15.02;8.32;;;22.90;99.90;;;;;;4997507;28;20241;-80
2022/10/30 10:26:28;;;;;;;15.45;8.35;;;22.90;99.90;;;;;;4997486;28;20225;-80
2022/10/30 10:29:08;;;;;;;14.52;8.30;;;22.90;99.90;;;;;;4999592;28;20241;-80
2022/10/30 10:31:44;;;;;;;16.42;7.82;;;23.00;99.90;;;;;;4999417;28;20232;-80
2022/10/30 10:34:32;;;;;;;15.13;8.18;;;23.00;99.90;;;;;;4996615;28;20221;-80
2022/10/30 10:37:07;;;;;;;17.95;8.48;;;23.00;99.90;;;;;;5004882;28;20217;-80
2022/10/30 10:39:51;;;;;;;17.08;8.27;;;23.00;99.90;;;;;;5000375;28;20299;-80
2022/10/30 10:42:24;;;;;;;13.68;7.53;;;23.00;99.90;;;;;;5001832;28;20756;-80
2022/10/30 10:45:06;;;;;;;13.25;8.15;;;23.00;99.90;;;;;;4998911;28;20233;-80
2022/10/30 10:47:49;;;;;;;14.68;7.80;;;23.00;99.90;;;;;;4996769;28;20318;-80
2022/10/30 10:50:23;;;;;;;13.32;7.28;;;23.00;99.90;;;;;;5001172;28;20308;-80
2022/10/30 10:52:57;;;;;;;14.00;7.75;;;23.00;99.90;;;;;;4996264;28;20767;-80
2022/10/30 10:55:28;;;;;;;16.13;8.38;;;23.00;99.90;;;;;;4997449;28;20217;-80
2022/10/30 10:58:04;;;;;;;13.10;7.85;;;23.00;99.90;;;;;;4997454;28;20328;-80
2022/10/30 11:00:31;;;;;;;20.60;8.18;;;23.00;99.90;;;;;;4998746;28;20478;-80
2022/10/30 11:03:02;;;;;;;12.85;7.32;;;22.90;99.90;;;;;;4996753;28;20541;-80
2022/10/30 11:05:35;;;;;;;13.88;7.88;;;22.80;99.90;;;;;;5001527;28;20233;-80
2022/10/30 11:08:11;;;;;;;13.32;7.60;;;22.80;99.90;;;;;;4995789;28;20800;-80
2022/10/30 11:10:39;;;;;;;13.88;7.38;;;22.70;99.90;;;;;;5000259;28;20225;-80
2022/10/30 11:13:06;;;;;;;12.20;7.60;;;22.70;99.90;;;;;;4997010;28;20252;-80
2022/10/30 11:15:51;;;;;;;13.10;7.35;;;22.60;99.90;;;;;;5001529;28;20229;-80
2022/10/30 11:18:17;;;;;;;12.77;7.50;;;22.70;99.90;;;;;;4999304;28;20496;-80
2022/10/30 11:20:55;;;;;;;14.43;7.68;;;22.70;99.90;;;;;;5005008;28;20541;-80
2022/10/30 11:23:33;;;;;;;17.30;7.97;;;22.70;99.90;;;;;;5001729;28;20231;-80
2022/10/30 11:26:02;;;;;;;16.42;8.57;;;22.80;99.90;;;;;;5008092;28;20222;-80
2022/10/30 11:28:45;;;;;;;14.32;7.72;;;22.80;99.90;;;;;;4999755;28;20727;-80
2022/10/30 11:31:20;;;;;;;13.77;6.55;;;22.90;99.90;;;;;;5003528;28;20225;-80
2022/10/30 11:33:47;;;;;;;14.43;6.50;;;22.90;99.90;;;;;;4994808;28;20228;-80
2022/10/30 11:36:15;;;;;;;14.55;6.53;;;22.90;99.90;;;;;;4992042;28;20225;-81
2022/10/30 11:38:42;;;;;;;12.85;7.18;;;22.90;99.90;;;;;;5004543;28;20237;-81
2022/10/30 11:41:11;;;;;;;18.00;6.97;;;23.00;99.90;;;;;;4996167;28;20214;-81
2022/10/30 11:43:39;;;;;;;16.13;6.90;;;23.00;99.90;;;;;;5003514;28;20238;-80
2022/10/30 11:46:09;;;;;;;13.27;6.63;;;23.00;99.90;;;;;;4999624;28;20229;-81
2022/10/30 11:48:38;;;;;;;12.63;6.03;;;23.00;99.90;;;;;;5008952;28;20859;-82
2022/10/30 11:51:06;;;;;;;15.18;6.60;;;23.00;99.90;;;;;;5006228;28;20272;-81
2022/10/30 11:53:37;;;;;;;12.80;5.68;;;23.00;99.90;;;;;;5008023;28;20237;-80
2022/10/30 11:56:15;;;;;;;13.48;6.15;;;23.00;99.90;;;;;;4999760;28;20240;-81
2022/10/30 11:58:44;;;;;;;12.40;5.90;;;22.90;99.50;;;;;;5005627;28;20767;-83
2022/10/30 12:01:17;;;;;;;12.93;6.50;;;23.00;99.80;;;;;;5000388;28;20284;-81
2022/10/30 12:03:43;;;;;;;13.90;6.55;;;23.00;99.10;;;;;;5002439;28;20245;-82
2022/10/30 12:06:16;;;;;;;13.13;6.00;;;23.00;99.80;;;;;;4994491;28;20225;-83
2022/10/30 12:08:59;;;;;;;12.70;6.10;;;22.90;99.40;;;;;;4994229;28;20268;-82
2022/10/30 12:11:30;;;;;;;15.55;6.32;;;22.90;99.30;;;;;;4994784;28;20641;-82
2022/10/30 12:13:58;;;;;;;14.25;6.07;;;22.80;99.30;;;;;;4992183;28;20341;-81
2022/10/30 12:16:25;;;;;;;9.40;5.40;;;22.80;99.50;;;;;;5020183;28;20229;-82
2022/10/30 12:18:59;;;;;;;13.52;6.45;;;22.80;99.40;;;;;;4991247;28;20238;-82
2022/10/30 12:21:28;;;;;;;13.00;6.38;;;22.70;98.90;;;;;;4991611;28;20260;-85
2022/10/30 12:23:59;;;;;;;15.98;6.22;;;22.60;99.30;;;;;;5003066;28;20233;-84
2022/10/30 12:26:27;;;;;;;15.35;6.45;;;22.60;99.20;;;;;;4988076;28;20242;-84
2022/10/30 12:28:59;;;;;;;11.20;5.85;;;22.50;99.50;;;;;;5003810;28;20222;-83
2022/10/30 12:31:32;;;;;;;15.45;5.65;;;22.50;99.20;;;;;;5004184;28;20765;-84
2022/10/30 12:34:23;;;;;;;14.77;6.10;;;22.40;99.40;;;;;;4982711;28;20234;-84
2022/10/30 12:36:55;;;;;;;14.93;6.45;;;22.30;99.40;;;;;;5002520;28;20232;-84
2022/10/30 12:39:26;;;;;;;13.07;5.82;;;22.30;99.60;;;;;;4993926;28;20906;-85
2022/10/30 12:42:00;;;;;;;11.43;6.03;;;22.30;99.70;;;;;;4989107;28;20296;-83
2022/10/30 12:44:32;;;;;;;12.05;5.82;;;22.30;99.60;;;;;;4983546;28;20238;-84
2022/10/30 12:47:04;;;;;;;11.45;6.72;;;22.20;99.60;;;;;;5000750;28;20252;-84
2022/10/30 12:49:40;;;;;;;14.18;6.65;;;22.20;99.60;;;;;;4986068;28;20233;-84
2022/10/30 12:52:12;;;;;;;13.55;6.50;;;22.20;99.50;;;;;;4998124;28;20236;-84
2022/10/30 12:54:46;;;;;;;14.05;6.50;;;22.10;99.60;;;;;;5003984;28;21016;-83
2022/10/30 12:57:15;;;;;;;11.50;5.90;;;22.00;99.50;;;;;;4998292;28;20234;-84
2022/10/30 12:59:54;;;;;;;13.25;6.68;;;22.00;99.50;;;;;;4985521;28;20230;-83